createdAt,value
2019-03-21T00:01:35.798Z,17.00
2019-03-21T00:04:12.322Z,17.20
2019-03-21T00:06:45.036Z,17.30
2019-03-21T00:09:19.281Z,17.00
2019-03-21T00:12:03.532Z,17.00
2019-03-21T00:15:09.111Z,17.00
2019-03-21T00:18:03.485Z,16.80
2019-03-21T00:20:36.167Z,16.80
2019-03-21T00:23:10.191Z,17.10
2019-03-21T00:25:42.923Z,17.10
2019-03-21T00:28:15.478Z,17.40
2019-03-21T00:30:48.126Z,17.30
2019-03-21T00:33:20.751Z,17.20
2019-03-21T00:35:53.439Z,17.00
2019-03-21T00:38:26.107Z,17.30
2019-03-21T00:40:58.719Z,17.40
2019-03-21T00:43:31.316Z,17.30
2019-03-21T00:46:04.356Z,17.40
2019-03-21T00:48:37.003Z,17.50
2019-03-21T00:51:09.675Z,17.80
2019-03-21T00:53:42.312Z,17.30
2019-03-21T00:56:14.910Z,17.20
2019-03-21T00:58:47.477Z,17.50
2019-03-21T01:01:20.501Z,17.70
2019-03-21T01:03:53.109Z,17.80
2019-03-21T01:06:25.793Z,18.00
2019-03-21T01:08:58.430Z,18.30
2019-03-21T01:11:30.981Z,17.80
2019-03-21T01:14:04.761Z,17.50
2019-03-21T01:16:37.322Z,17.60
2019-03-21T01:19:09.918Z,17.70
2019-03-21T01:21:42.491Z,17.60
2019-03-21T01:24:15.095Z,17.60
2019-03-21T01:26:47.656Z,17.80
2019-03-21T01:29:20.291Z,17.80
2019-03-21T01:31:54.620Z,17.90
2019-03-21T01:34:27.539Z,18.30
2019-03-21T01:37:00.160Z,17.90
2019-03-21T01:39:32.738Z,18.00
2019-03-21T01:42:05.359Z,18.20
2019-03-21T01:44:41.182Z,18.20
2019-03-21T01:47:13.566Z,18.40
2019-03-21T01:49:46.121Z,18.70
2019-03-21T01:52:19.234Z,18.70
2019-03-21T01:54:51.772Z,18.60
2019-03-21T01:57:24.326Z,19.00
2019-03-21T01:59:56.875Z,19.10
2019-03-21T02:02:29.976Z,18.80
2019-03-21T02:05:02.534Z,19.00
2019-03-21T02:07:35.119Z,19.00
2019-03-21T02:10:11.299Z,19.10
2019-03-21T02:12:43.902Z,19.10
2019-03-21T02:15:16.524Z,19.50
2019-03-21T02:17:49.198Z,19.70
2019-03-21T02:20:21.836Z,19.60
2019-03-21T02:22:54.480Z,19.70
2019-03-21T02:25:30.263Z,19.50
2019-03-21T02:28:02.801Z,19.80
2019-03-21T02:30:37.283Z,19.60
2019-03-21T02:33:23.657Z,19.70
2019-03-21T02:35:56.253Z,19.70
2019-03-21T02:38:28.808Z,19.70
2019-03-21T02:41:03.915Z,20.30
2019-03-21T02:43:36.674Z,19.60
2019-03-21T02:46:09.233Z,19.70
2019-03-21T02:48:42.270Z,19.50
2019-03-21T02:51:14.862Z,19.50
2019-03-21T02:53:47.780Z,19.60
2019-03-21T02:56:21.256Z,19.50
2019-03-21T02:58:54.011Z,19.60
2019-03-21T03:01:26.570Z,19.60
2019-03-21T03:03:59.405Z,20.00
2019-03-21T03:06:31.971Z,19.80
2019-03-21T03:09:06.294Z,20.40
2019-03-21T03:11:38.823Z,20.00
2019-03-21T03:14:11.428Z,19.70
2019-03-21T03:16:44.079Z,19.60
2019-03-21T03:19:16.947Z,19.50
2019-03-21T03:21:49.621Z,19.60
2019-03-21T03:24:25.199Z,20.00
2019-03-21T03:26:57.985Z,20.00
2019-03-21T03:29:30.584Z,19.70
2019-03-21T03:32:03.142Z,19.70
2019-03-21T03:34:36.329Z,19.80
2019-03-21T03:37:10.153Z,19.50
2019-03-21T03:39:43.698Z,19.60
2019-03-21T03:42:17.314Z,19.30
2019-03-21T03:44:50.976Z,19.30
2019-03-21T03:47:23.607Z,19.30
2019-03-21T03:49:56.158Z,19.40
2019-03-21T03:52:28.855Z,19.40
2019-03-21T03:55:01.454Z,19.20
2019-03-21T03:57:34.383Z,19.30
2019-03-21T04:00:08.636Z,19.50
2019-03-21T04:02:41.416Z,19.40
2019-03-21T04:05:14.086Z,19.40
2019-03-21T04:07:47.044Z,19.30
2019-03-21T04:10:26.733Z,19.60
2019-03-21T04:12:59.335Z,19.60
2019-03-21T04:15:31.933Z,19.70
2019-03-21T04:18:04.555Z,19.50
2019-03-21T04:20:39.316Z,19.80
2019-03-21T04:23:12.084Z,19.80
2019-03-21T04:25:58.612Z,19.60
2019-03-21T04:28:31.159Z,19.60
2019-03-21T04:31:03.754Z,19.70
2019-03-21T04:33:36.359Z,19.50
2019-03-21T04:36:09.224Z,19.60
2019-03-21T04:38:41.941Z,19.60
2019-03-21T04:41:14.505Z,19.60
2019-03-21T04:43:47.176Z,19.60
2019-03-21T04:46:19.756Z,19.80
2019-03-21T04:48:52.338Z,19.90
2019-03-21T04:51:25.184Z,19.90
2019-03-21T04:53:57.867Z,19.90
2019-03-21T04:56:30.837Z,20.00
2019-03-21T04:59:03.499Z,20.00
2019-03-21T05:01:36.061Z,20.10
2019-03-21T05:04:08.645Z,20.40
2019-03-21T05:06:41.429Z,20.40
2019-03-21T05:09:18.735Z,20.10
2019-03-21T05:11:51.345Z,20.00
2019-03-21T05:14:25.193Z,20.40
2019-03-21T05:16:57.810Z,20.60
2019-03-21T05:19:30.370Z,20.50
2019-03-21T05:22:03.326Z,20.30
2019-03-21T05:24:35.934Z,20.50
2019-03-21T05:27:08.494Z,20.70
2019-03-21T05:29:41.108Z,20.70
2019-03-21T05:32:14.671Z,20.70
2019-03-21T05:34:47.256Z,20.80
2019-03-21T05:37:20.122Z,20.90
2019-03-21T05:39:52.755Z,20.90
2019-03-21T05:42:26.952Z,20.70
2019-03-21T05:44:59.553Z,20.80
2019-03-21T05:47:32.200Z,20.90
2019-03-21T05:50:04.875Z,20.70
2019-03-21T05:52:37.670Z,20.60
2019-03-21T05:55:11.168Z,20.70
2019-03-21T05:57:43.953Z,20.80
2019-03-21T06:00:30.259Z,20.90
2019-03-21T06:03:04.325Z,21.30
2019-03-21T06:05:37.358Z,21.00
2019-03-21T06:08:27.159Z,21.00
2019-03-21T06:11:01.015Z,21.40
2019-03-21T06:13:33.655Z,21.10
2019-03-21T06:16:13.245Z,21.20
2019-03-21T06:19:14.302Z,21.50
2019-03-21T06:22:58.764Z,21.40
2019-03-21T06:26:18.021Z,21.50
2019-03-21T06:28:50.590Z,21.70
2019-03-21T06:31:23.201Z,21.30
2019-03-21T06:33:55.805Z,21.50
2019-03-21T06:36:28.396Z,21.40
2019-03-21T06:39:01.373Z,21.50
2019-03-21T06:41:35.294Z,21.40
2019-03-21T06:44:07.991Z,21.60
2019-03-21T06:46:48.911Z,21.60
2019-03-21T06:49:14.961Z,21.40
2019-03-21T06:51:48.551Z,21.90
2019-03-21T06:54:21.163Z,21.80
2019-03-21T06:56:54.841Z,21.90
2019-03-21T06:59:28.108Z,22.10
2019-03-21T07:02:00.690Z,21.90
2019-03-21T07:04:33.248Z,22.50
2019-03-21T07:07:08.309Z,22.80
2019-03-21T07:09:40.349Z,22.50
2019-03-21T07:12:12.935Z,22.40
2019-03-21T07:14:45.513Z,22.40
2019-03-21T07:17:18.071Z,22.50
2019-03-21T07:19:50.666Z,22.20
2019-03-21T07:22:23.252Z,22.30
2019-03-21T07:24:56.224Z,22.40
2019-03-21T07:27:28.773Z,22.70
2019-03-21T07:30:02.399Z,22.50
2019-03-21T07:32:34.964Z,22.70
2019-03-21T07:35:08.925Z,22.40
2019-03-21T07:37:41.544Z,22.40
2019-03-21T07:40:15.034Z,22.30
2019-03-21T07:42:47.639Z,22.60
2019-03-21T07:45:20.323Z,22.50
2019-03-21T07:47:52.979Z,22.50
2019-03-21T07:50:25.577Z,22.20
2019-03-21T07:52:58.194Z,22.80
2019-03-21T07:55:31.070Z,22.90
2019-03-21T07:58:03.754Z,22.80
2019-03-21T08:00:36.328Z,22.80
2019-03-21T08:03:08.904Z,22.50
2019-03-21T08:05:41.492Z,22.40
2019-03-21T08:08:14.170Z,22.50
2019-03-21T08:10:47.249Z,22.60
2019-03-21T08:13:19.876Z,22.40
2019-03-21T08:15:52.422Z,22.70
2019-03-21T08:18:25.037Z,22.50
2019-03-21T08:21:00.055Z,22.60
2019-03-21T08:23:32.991Z,22.60
2019-03-21T08:26:05.909Z,22.40
2019-03-21T08:28:38.606Z,22.30
2019-03-21T08:31:22.198Z,22.40
2019-03-21T08:33:54.908Z,22.70
2019-03-21T08:36:28.685Z,22.50
2019-03-21T08:39:01.319Z,22.40
2019-03-21T08:41:35.811Z,22.50
2019-03-21T08:44:08.459Z,22.70
2019-03-21T08:46:41.091Z,22.60
2019-03-21T08:49:13.667Z,22.40
2019-03-21T08:51:46.269Z,22.90
2019-03-21T08:54:18.838Z,22.70
2019-03-21T08:56:51.792Z,22.80
2019-03-21T08:59:24.573Z,23.00
2019-03-21T09:01:57.489Z,22.90
2019-03-21T09:04:30.081Z,23.10
2019-03-21T09:07:02.770Z,23.00
2019-03-21T09:09:35.368Z,22.80
2019-03-21T09:12:08.196Z,22.70
2019-03-21T09:14:40.824Z,22.70
2019-03-21T09:17:13.452Z,22.30
2019-03-21T09:19:46.229Z,22.50
2019-03-21T09:22:18.847Z,21.90
2019-03-21T09:24:51.543Z,21.60
2019-03-21T09:27:24.564Z,21.60
2019-03-21T09:29:57.206Z,21.30
2019-03-21T09:32:29.810Z,21.70
2019-03-21T09:35:02.415Z,21.80
2019-03-21T09:37:35.011Z,21.60
2019-03-21T09:40:09.043Z,22.10
2019-03-21T09:42:42.757Z,22.10
2019-03-21T09:45:15.426Z,21.70
2019-03-21T09:47:48.078Z,21.30
2019-03-21T09:50:29.890Z,21.20
2019-03-21T09:53:02.464Z,21.30
2019-03-21T09:55:35.307Z,21.20
2019-03-21T09:58:08.511Z,21.40
2019-03-21T10:00:41.408Z,21.50
2019-03-21T10:03:14.093Z,21.70
2019-03-21T10:05:46.708Z,21.40
2019-03-21T10:08:19.400Z,21.40
2019-03-21T10:10:52.009Z,21.20
2019-03-21T10:13:25.111Z,21.20
2019-03-21T10:15:57.664Z,20.90
2019-03-21T10:18:30.311Z,20.80
2019-03-21T10:21:02.895Z,20.90
2019-03-21T10:23:35.584Z,21.20
2019-03-21T10:26:08.187Z,21.50
2019-03-21T10:28:41.111Z,21.60
2019-03-21T10:31:13.761Z,21.90
2019-03-21T10:33:46.468Z,21.60
2019-03-21T10:36:19.069Z,21.70
2019-03-21T10:38:51.713Z,21.30
2019-03-21T10:41:24.282Z,21.50
2019-03-21T10:43:57.062Z,21.10
2019-03-21T10:46:29.654Z,20.90
2019-03-21T10:49:02.355Z,20.70
2019-03-21T10:51:34.946Z,20.80
2019-03-21T10:54:07.562Z,20.70
2019-03-21T10:56:40.137Z,21.00
2019-03-21T10:59:13.687Z,20.50
2019-03-21T11:01:46.290Z,20.70
2019-03-21T11:04:19.160Z,20.90
2019-03-21T11:07:00.195Z,20.90
2019-03-21T11:09:33.352Z,20.90
2019-03-21T11:12:06.035Z,20.80
2019-03-21T11:14:38.667Z,20.50
2019-03-21T11:17:11.230Z,20.10
2019-03-21T11:19:43.837Z,20.20
2019-03-21T11:22:16.487Z,20.30
2019-03-21T11:24:49.067Z,20.50
2019-03-21T11:27:21.679Z,20.70
2019-03-21T11:29:54.613Z,20.50
2019-03-21T11:32:27.255Z,20.40
2019-03-21T11:34:59.803Z,20.30
2019-03-21T11:37:32.422Z,20.30
2019-03-21T11:40:05.281Z,20.30
2019-03-21T11:42:38.083Z,20.30
2019-03-21T11:45:10.743Z,20.60
2019-03-21T11:47:43.342Z,21.50
2019-03-21T11:50:17.141Z,21.00
2019-03-21T11:52:49.691Z,21.10
2019-03-21T11:55:22.301Z,20.20
2019-03-21T11:57:54.941Z,20.30
2019-03-21T12:00:28.119Z,20.30
2019-03-21T12:03:00.703Z,20.30
2019-03-21T12:05:34.663Z,20.40
2019-03-21T12:08:07.259Z,19.90
2019-03-21T12:10:39.873Z,19.30
2019-03-21T12:13:12.497Z,19.50
2019-03-21T12:15:45.100Z,19.80
2019-03-21T12:18:17.692Z,19.80
2019-03-21T12:20:50.309Z,20.20
2019-03-21T12:23:22.887Z,20.40
2019-03-21T12:25:55.513Z,20.10
2019-03-21T12:28:28.067Z,20.80
2019-03-21T12:31:01.226Z,20.40
2019-03-21T12:33:34.757Z,19.80
2019-03-21T12:36:07.375Z,19.80
2019-03-21T12:38:39.955Z,19.90
2019-03-21T12:41:12.693Z,19.60
2019-03-21T12:43:45.259Z,19.20
2019-03-21T12:46:18.295Z,19.70
2019-03-21T12:48:50.900Z,19.80
2019-03-21T12:51:23.514Z,19.80
2019-03-21T12:53:56.096Z,19.40
2019-03-21T12:56:28.712Z,19.00
2019-03-21T12:59:01.349Z,19.30
2019-03-21T13:01:34.033Z,19.00
2019-03-21T13:04:06.766Z,18.70
2019-03-21T13:06:39.714Z,18.30
2019-03-21T13:09:12.277Z,18.00
2019-03-21T13:11:44.948Z,17.90
2019-03-21T13:14:17.571Z,18.10
2019-03-21T13:16:50.187Z,17.80
2019-03-21T13:19:22.773Z,18.40
2019-03-21T13:21:55.401Z,18.30
2019-03-21T13:24:27.994Z,18.20
2019-03-21T13:27:00.595Z,17.60
2019-03-21T13:29:33.173Z,17.40
2019-03-21T13:32:06.190Z,16.60
2019-03-21T13:34:39.997Z,15.40
2019-03-21T13:37:12.579Z,15.70
2019-03-21T13:39:45.289Z,15.20
2019-03-21T13:42:17.927Z,15.50
2019-03-21T13:44:51.663Z,15.40
2019-03-21T13:47:24.345Z,15.00
2019-03-21T13:49:57.108Z,15.00
2019-03-21T13:52:30.874Z,15.10
2019-03-21T13:55:03.487Z,14.90
2019-03-21T13:57:36.164Z,15.00
2019-03-21T14:00:13.148Z,14.40
2019-03-21T14:02:46.145Z,14.50
2019-03-21T14:05:18.965Z,14.20
2019-03-21T14:07:51.654Z,14.20
2019-03-21T14:10:24.316Z,14.00
2019-03-21T14:12:56.917Z,14.20
2019-03-21T14:15:29.508Z,14.40
2019-03-21T14:18:02.195Z,15.00
2019-03-21T14:20:34.804Z,14.90
2019-03-21T14:23:16.542Z,14.60
2019-03-21T14:25:41.865Z,14.60
2019-03-21T14:28:15.897Z,14.50
2019-03-21T14:30:48.514Z,14.30
2019-03-21T14:33:21.315Z,14.40
2019-03-21T14:35:53.952Z,13.80
2019-03-21T14:38:26.745Z,13.30
2019-03-21T14:40:59.548Z,13.00
2019-03-21T14:43:32.166Z,13.10
2019-03-21T14:46:04.854Z,12.60
2019-03-21T14:48:37.737Z,12.60
2019-03-21T14:51:10.371Z,13.00
2019-03-21T14:53:43.026Z,12.80
2019-03-21T14:56:15.669Z,13.20
2019-03-21T14:58:48.284Z,13.50
2019-03-21T15:01:20.916Z,14.10
2019-03-21T15:03:53.888Z,14.30
2019-03-21T15:06:26.696Z,14.60
2019-03-21T15:08:59.438Z,14.20
2019-03-21T15:11:32.077Z,14.00
2019-03-21T15:14:05.489Z,14.00
2019-03-21T15:16:38.268Z,14.20
2019-03-21T15:19:11.740Z,14.60
2019-03-21T15:21:44.546Z,14.50
2019-03-21T15:24:17.231Z,14.80
2019-03-21T15:26:51.175Z,15.60
2019-03-21T15:29:23.968Z,15.80
2019-03-21T15:31:56.566Z,16.30
2019-03-21T15:34:29.484Z,15.90
2019-03-21T15:37:02.127Z,15.90
2019-03-21T15:39:34.775Z,15.80
2019-03-21T15:42:07.523Z,16.00
2019-03-21T15:44:40.199Z,16.00
2019-03-21T15:47:12.854Z,16.40
2019-03-21T15:49:45.941Z,16.50
2019-03-21T15:52:18.659Z,16.60
2019-03-21T15:54:51.320Z,17.00
2019-03-21T15:57:24.244Z,17.20
2019-03-21T15:59:56.924Z,17.70
2019-03-21T16:02:29.719Z,17.70
2019-03-21T16:05:02.561Z,18.20
2019-03-21T16:07:35.371Z,18.50
2019-03-21T16:10:09.276Z,18.60
2019-03-21T16:12:41.876Z,19.00
2019-03-21T16:15:14.986Z,18.90
2019-03-21T16:17:47.957Z,19.10
2019-03-21T16:20:20.905Z,19.20
2019-03-21T16:22:53.520Z,19.30
2019-03-21T16:25:26.114Z,19.70
2019-03-21T16:27:58.804Z,19.80
2019-03-21T16:30:31.513Z,20.30
2019-03-21T16:33:04.277Z,20.20
2019-03-21T16:35:37.256Z,21.10
2019-03-21T16:38:10.035Z,21.40
2019-03-21T16:40:43.013Z,21.30
2019-03-21T16:43:15.713Z,21.10
2019-03-21T16:45:48.392Z,21.20
2019-03-21T16:48:21.302Z,21.30
2019-03-21T16:50:54.266Z,21.00
2019-03-21T16:53:26.922Z,21.10
2019-03-21T16:55:59.992Z,21.10
2019-03-21T16:58:33.898Z,21.30
2019-03-21T17:01:07.831Z,21.30
2019-03-21T17:03:40.841Z,21.30
2019-03-21T17:06:13.685Z,21.40
2019-03-21T17:08:46.513Z,21.40
2019-03-21T17:11:19.450Z,21.40
2019-03-21T17:13:52.219Z,21.20
2019-03-21T17:16:24.995Z,21.10
2019-03-21T17:18:57.960Z,20.90
2019-03-21T17:21:31.312Z,20.80
2019-03-21T17:24:04.295Z,21.20
2019-03-21T17:26:37.088Z,21.10
2019-03-21T17:29:09.863Z,21.00
2019-03-21T17:31:42.534Z,21.20
2019-03-21T17:34:15.234Z,21.20
2019-03-21T17:36:48.239Z,21.30
2019-03-21T17:39:20.964Z,21.20
2019-03-21T17:41:53.610Z,21.20
2019-03-21T17:44:26.233Z,21.20
2019-03-21T17:46:58.935Z,21.40
2019-03-21T17:49:32.748Z,21.40
2019-03-21T17:52:05.454Z,21.30
2019-03-21T17:54:41.683Z,21.40
2019-03-21T17:57:12.657Z,21.40
2019-03-21T17:59:45.267Z,21.50
2019-03-21T18:02:18.808Z,21.70
2019-03-21T18:04:51.465Z,22.30
2019-03-21T18:07:24.105Z,22.00
2019-03-21T18:09:56.900Z,21.90
2019-03-21T18:12:30.647Z,22.00
2019-03-21T18:15:03.398Z,22.00
2019-03-21T18:17:36.140Z,21.70
2019-03-21T18:20:09.127Z,21.90
2019-03-21T18:22:42.007Z,21.80
2019-03-21T18:25:15.018Z,21.80
2019-03-21T18:27:48.812Z,22.00
2019-03-21T18:30:21.519Z,22.10
2019-03-21T18:32:54.788Z,22.20
2019-03-21T18:35:27.670Z,22.10
2019-03-21T18:38:00.585Z,22.20
2019-03-21T18:40:33.261Z,22.10
2019-03-21T18:43:06.153Z,22.40
2019-03-21T18:45:38.763Z,22.40
2019-03-21T18:48:11.499Z,22.40
2019-03-21T18:50:44.349Z,22.60
2019-03-21T18:53:17.361Z,22.90
2019-03-21T18:55:50.091Z,22.80
2019-03-21T18:58:22.857Z,22.90
2019-03-21T19:00:55.555Z,23.20
2019-03-21T19:03:28.337Z,22.90
2019-03-21T19:06:01.111Z,23.10
2019-03-21T19:08:34.078Z,23.20
2019-03-21T19:11:06.701Z,23.10
2019-03-21T19:13:39.448Z,23.30
2019-03-21T19:16:12.209Z,23.50
2019-03-21T19:18:45.006Z,23.90
2019-03-21T19:21:17.735Z,24.10
2019-03-21T19:23:50.339Z,23.30
2019-03-21T19:26:22.990Z,23.40
2019-03-21T19:28:55.645Z,23.50
2019-03-21T19:31:28.421Z,23.30
2019-03-21T19:34:01.122Z,23.80
2019-03-21T19:36:33.865Z,23.70
2019-03-21T19:39:10.455Z,23.90
2019-03-21T19:41:43.096Z,24.10
2019-03-21T19:44:15.755Z,23.80
2019-03-21T19:46:48.399Z,24.40
2019-03-21T19:49:21.024Z,24.00
2019-03-21T19:51:53.708Z,24.20
2019-03-21T19:54:26.875Z,24.20
2019-03-21T19:56:59.468Z,24.30
2019-03-21T19:59:32.122Z,24.70
2019-03-21T20:02:05.198Z,24.10
2019-03-21T20:04:37.936Z,24.30
2019-03-21T20:07:10.577Z,24.50
2019-03-21T20:09:43.725Z,24.90
2019-03-21T20:12:16.333Z,24.90
2019-03-21T20:14:49.341Z,24.60
2019-03-21T20:17:22.115Z,24.80
2019-03-21T20:19:54.873Z,25.10
2019-03-21T20:22:27.486Z,25.10
2019-03-21T20:25:00.425Z,24.90
2019-03-21T20:27:33.151Z,25.20
2019-03-21T20:30:07.328Z,24.20
2019-03-21T20:32:40.039Z,24.50
2019-03-21T20:35:13.135Z,24.50
2019-03-21T20:37:45.866Z,24.50
2019-03-21T20:40:19.144Z,24.70
2019-03-21T20:42:52.035Z,25.00
2019-03-21T20:45:24.702Z,24.90
2019-03-21T20:47:57.422Z,25.10
2019-03-21T20:50:30.056Z,24.90
2019-03-21T20:53:02.859Z,25.00
2019-03-21T20:55:35.853Z,24.90
2019-03-21T20:58:08.683Z,25.20
2019-03-21T21:00:41.495Z,26.00
2019-03-21T21:03:14.333Z,25.10
2019-03-21T21:05:47.063Z,25.00
2019-03-21T21:08:19.909Z,25.40
2019-03-21T21:10:52.852Z,25.10
2019-03-21T21:13:25.560Z,25.20
2019-03-21T21:15:58.321Z,25.20
2019-03-21T21:18:30.954Z,25.40
2019-03-21T21:21:03.726Z,25.20
2019-03-21T21:23:36.438Z,25.30
2019-03-21T21:26:09.059Z,25.00
2019-03-21T21:28:41.993Z,25.10
2019-03-21T21:31:14.741Z,25.00
2019-03-21T21:33:47.438Z,25.30
2019-03-21T21:36:22.124Z,25.30
2019-03-21T21:38:54.467Z,24.90
2019-03-21T21:41:27.090Z,25.10
2019-03-21T21:43:59.818Z,24.80
2019-03-21T21:46:32.434Z,24.70
2019-03-21T21:49:05.193Z,24.90
2019-03-21T21:51:37.798Z,25.20
2019-03-21T21:54:10.410Z,25.30
2019-03-21T21:56:43.350Z,25.30
2019-03-21T21:59:15.958Z,25.10
2019-03-21T22:01:48.540Z,24.90
2019-03-21T22:04:21.158Z,24.80
2019-03-21T22:06:53.801Z,24.50
2019-03-21T22:09:26.395Z,24.60
2019-03-21T22:11:58.927Z,25.00
2019-03-21T22:14:31.587Z,25.20
2019-03-21T22:17:04.388Z,24.90
2019-03-21T22:19:37.121Z,24.80
2019-03-21T22:22:09.759Z,24.60
2019-03-21T22:24:42.415Z,24.70
2019-03-21T22:27:15.361Z,24.90
2019-03-21T22:29:47.977Z,25.30
2019-03-21T22:32:20.601Z,25.50
2019-03-21T22:34:53.283Z,25.20
2019-03-21T22:37:25.931Z,25.30
2019-03-21T22:39:58.590Z,25.20
2019-03-21T22:42:31.600Z,25.50
2019-03-21T22:45:04.407Z,25.70
2019-03-21T22:47:37.014Z,26.20
2019-03-21T22:50:14.915Z,25.90
2019-03-21T22:52:48.009Z,26.40
2019-03-21T22:55:20.618Z,25.70
2019-03-21T22:57:53.739Z,25.50
2019-03-21T23:00:35.028Z,25.20
2019-03-21T23:03:08.039Z,25.30
2019-03-21T23:05:41.839Z,25.10
2019-03-21T23:08:14.547Z,24.90
2019-03-21T23:10:47.153Z,24.70
2019-03-21T23:13:20.318Z,24.80
2019-03-21T23:15:52.989Z,24.60
2019-03-21T23:18:25.596Z,24.80
2019-03-21T23:20:58.235Z,25.20
2019-03-21T23:23:30.799Z,25.50
2019-03-21T23:26:03.423Z,25.50
2019-03-21T23:28:36.336Z,25.30
2019-03-21T23:31:09.016Z,25.00
2019-03-21T23:33:41.839Z,25.00
2019-03-21T23:36:14.520Z,24.90
2019-03-21T23:38:47.098Z,25.00
2019-03-21T23:41:19.799Z,25.00
2019-03-21T23:43:52.517Z,24.90
2019-03-21T23:46:25.098Z,25.10
2019-03-21T23:48:57.677Z,25.00
2019-03-21T23:51:30.256Z,24.80
2019-03-21T23:54:02.893Z,24.90
2019-03-21T23:56:35.447Z,24.90
2019-03-21T23:59:08.336Z,25.00
